createdAt,value
2023-03-02T00:02:39.631Z,35.50
2023-03-02T00:07:36.030Z,37.50
2023-03-02T00:12:30.250Z,35.70
2023-03-02T00:17:27.972Z,34.90
2023-03-02T00:22:20.836Z,34.50
2023-03-02T00:27:13.479Z,34.80
2023-03-02T00:32:06.692Z,32.80
2023-03-02T00:37:00.113Z,31.80
2023-03-02T00:41:52.827Z,34.50
2023-03-02T00:46:46.617Z,35.80
2023-03-02T00:51:39.738Z,35.70
2023-03-02T00:56:32.824Z,33.40
2023-03-02T01:01:26.024Z,35.70
2023-03-02T01:06:22.408Z,33.60
2023-03-02T01:11:20.778Z,34.90
2023-03-02T01:16:13.901Z,34.80
2023-03-02T01:21:12.932Z,36.30
2023-03-02T01:26:07.573Z,32.20
2023-03-02T01:31:01.391Z,34.00
2023-03-02T01:35:54.146Z,34.10
2023-03-02T01:40:46.847Z,34.70
2023-03-02T01:45:49.015Z,32.80
2023-03-02T01:50:46.568Z,37.20
2023-03-02T01:55:40.527Z,35.80
2023-03-02T02:00:38.329Z,38.20
2023-03-02T02:05:31.027Z,38.50
2023-03-02T02:10:23.734Z,41.80
2023-03-02T02:15:19.000Z,41.50
2023-03-02T02:20:29.745Z,38.00
2023-03-02T02:25:45.552Z,43.20
2023-03-02T02:30:41.947Z,37.80
2023-03-02T02:35:38.640Z,39.70
2023-03-02T02:40:55.014Z,41.60
2023-03-02T02:45:55.063Z,39.40
2023-03-02T02:50:48.615Z,28.40
2023-03-02T02:55:43.335Z,39.00
2023-03-02T03:00:37.520Z,32.20
2023-03-02T03:05:30.264Z,31.00
2023-03-02T03:10:23.003Z,30.70
2023-03-02T03:15:15.960Z,29.60
2023-03-02T03:20:10.863Z,31.70
2023-03-02T03:25:08.496Z,34.80
2023-03-02T03:30:01.970Z,33.70
2023-03-02T03:34:55.627Z,28.70
2023-03-02T03:39:52.578Z,21.20
2023-03-02T03:44:45.686Z,30.10
2023-03-02T03:49:38.478Z,28.90
2023-03-02T03:54:31.981Z,31.60
2023-03-02T03:59:27.105Z,29.60
2023-03-02T04:04:34.683Z,29.00
2023-03-02T04:09:37.870Z,31.30
2023-03-02T04:14:31.830Z,28.20
2023-03-02T04:19:25.302Z,27.30
2023-03-02T04:24:23.410Z,28.90
2023-03-02T04:29:19.050Z,30.30
2023-03-02T04:34:13.727Z,32.20
2023-03-02T04:39:09.492Z,31.30
2023-03-02T04:44:02.252Z,30.80
2023-03-02T04:48:55.721Z,32.20
2023-03-02T04:53:48.372Z,28.40
2023-03-02T04:58:41.040Z,30.40
2023-03-02T05:03:34.064Z,28.70
2023-03-02T05:08:26.729Z,26.10
2023-03-02T05:13:19.415Z,25.30
2023-03-02T05:18:13.252Z,25.60
2023-03-02T05:23:09.875Z,21.90
2023-03-02T05:28:04.514Z,31.10
2023-03-02T05:32:57.226Z,30.00
2023-03-02T05:37:50.581Z,26.90
2023-03-02T05:42:43.903Z,29.00
2023-03-02T05:47:38.942Z,28.10
2023-03-02T05:52:41.943Z,25.30
2023-03-02T05:57:35.356Z,27.80
2023-03-02T06:02:28.074Z,26.80
2023-03-02T06:07:20.800Z,28.80
2023-03-02T06:12:13.504Z,27.60
2023-03-02T06:17:06.228Z,29.40
2023-03-02T06:21:59.563Z,28.30
2023-03-02T06:26:55.257Z,30.10
2023-03-02T06:31:48.148Z,29.40
2023-03-02T06:36:40.996Z,29.00
2023-03-02T06:41:34.886Z,31.50
2023-03-02T06:46:27.719Z,35.70
2023-03-02T06:51:20.404Z,30.20
2023-03-02T06:56:13.153Z,34.40
2023-03-02T07:01:07.897Z,32.00
2023-03-02T07:06:01.096Z,31.00
2023-03-02T07:10:53.828Z,25.30
2023-03-02T07:15:46.644Z,30.70
2023-03-02T07:20:39.634Z,29.30
2023-03-02T07:25:32.682Z,28.10
2023-03-02T07:30:26.591Z,28.80
2023-03-02T07:35:19.549Z,27.70
2023-03-02T07:40:13.610Z,23.40
2023-03-02T07:45:07.715Z,27.00
2023-03-02T07:50:00.326Z,28.00
2023-03-02T07:54:53.095Z,27.80
2023-03-02T07:59:46.255Z,22.80
2023-03-02T08:04:38.927Z,25.20
2023-03-02T08:09:31.588Z,27.10
2023-03-02T08:14:24.264Z,25.40
2023-03-02T08:19:16.961Z,24.00
2023-03-02T08:24:10.732Z,25.20
2023-03-02T08:29:03.519Z,18.70
2023-03-02T08:33:56.209Z,20.60
2023-03-02T08:38:50.326Z,18.50
2023-03-02T08:43:43.422Z,21.20
2023-03-02T08:48:36.153Z,18.00
2023-03-02T08:53:31.997Z,21.00
2023-03-02T08:58:24.672Z,21.20
2023-03-02T09:03:17.872Z,21.30
2023-03-02T09:08:10.717Z,18.20
2023-03-02T09:13:03.669Z,20.70
2023-03-02T09:17:56.361Z,21.10
2023-03-02T09:22:51.116Z,16.60
2023-03-02T09:27:43.770Z,12.90
2023-03-02T09:32:36.667Z,12.30
2023-03-02T09:37:32.938Z,11.20
2023-03-02T09:43:23.016Z,14.90
2023-03-02T09:48:32.552Z,13.40
2023-03-02T09:53:25.190Z,14.70
2023-03-02T09:58:21.683Z,14.60
2023-03-02T10:03:20.074Z,10.60
2023-03-02T10:08:16.449Z,8.80
2023-03-02T10:13:29.969Z,10.80
2023-03-02T10:18:29.573Z,16.10
2023-03-02T10:23:34.664Z,14.00
2023-03-02T10:28:34.166Z,17.10
2023-03-02T10:33:28.665Z,15.00
2023-03-02T10:38:26.248Z,14.30
2023-03-02T10:48:15.412Z,8.20
2023-03-02T10:53:09.647Z,12.40
2023-03-02T10:58:21.170Z,11.70
2023-03-02T11:03:24.230Z,11.00
2023-03-02T11:08:31.754Z,10.70
2023-03-02T11:13:29.270Z,12.40
2023-03-02T11:18:26.739Z,11.20
2023-03-02T11:23:36.108Z,12.90
2023-03-02T11:29:07.345Z,11.60
2023-03-02T11:34:35.267Z,12.80
2023-03-02T11:39:46.388Z,12.40
2023-03-02T11:49:45.055Z,14.70
2023-03-02T11:54:45.979Z,14.30
2023-03-02T11:59:39.760Z,17.30
2023-03-02T12:04:35.940Z,16.90
2023-03-02T12:09:36.578Z,17.10
2023-03-02T12:14:42.585Z,15.90
2023-03-02T12:19:45.272Z,17.00
2023-03-02T12:24:43.243Z,14.90
2023-03-02T12:29:46.500Z,17.60
2023-03-02T12:34:45.532Z,16.00
2023-03-02T12:40:35.522Z,16.00
2023-03-02T12:45:43.438Z,14.20
2023-03-02T12:50:40.848Z,13.70
2023-03-02T12:55:34.438Z,13.00
2023-03-02T13:00:30.843Z,12.50
2023-03-02T13:05:35.865Z,10.70
2023-03-02T13:10:37.284Z,11.00
2023-03-02T13:15:30.479Z,9.70
2023-03-02T13:20:25.562Z,9.10
2023-03-02T13:25:28.606Z,9.90
2023-03-02T13:30:30.857Z,10.40
2023-03-02T13:35:27.196Z,10.30
2023-03-02T13:40:22.861Z,10.00
2023-03-02T13:45:30.759Z,8.70
2023-03-02T13:55:19.593Z,8.50
2023-03-02T14:00:16.739Z,9.20
2023-03-02T14:05:21.889Z,9.90
2023-03-02T14:10:17.247Z,9.90
2023-03-02T14:15:15.557Z,10.40
2023-03-02T14:20:12.093Z,10.50
2023-03-02T14:25:04.975Z,11.20
2023-03-02T14:29:58.194Z,10.70
2023-03-02T14:34:50.896Z,10.60
2023-03-02T14:39:54.212Z,11.80
2023-03-02T14:44:49.716Z,12.60
2023-03-02T14:49:42.374Z,11.30
2023-03-02T14:54:45.012Z,10.80
2023-03-02T14:59:37.689Z,10.10
2023-03-02T15:04:30.369Z,10.90
2023-03-02T15:09:23.080Z,18.80
2023-03-02T15:14:15.740Z,13.10
2023-03-02T15:19:09.653Z,11.20
2023-03-02T15:24:02.365Z,13.30
2023-03-02T15:28:55.477Z,12.80
2023-03-02T15:33:48.387Z,18.00
2023-03-02T15:38:41.198Z,20.60
2023-03-02T15:43:34.290Z,20.40
2023-03-02T15:48:27.069Z,12.20
2023-03-02T15:53:19.825Z,13.00
2023-03-02T15:58:12.511Z,13.50
2023-03-02T16:03:05.626Z,12.30
2023-03-02T16:07:58.369Z,11.50
2023-03-02T16:12:51.011Z,11.50
2023-03-02T16:17:43.866Z,11.10
2023-03-02T16:22:36.514Z,11.00
2023-03-02T16:27:30.377Z,12.40
2023-03-02T16:32:23.135Z,12.40
2023-03-02T16:37:15.846Z,10.40
2023-03-02T16:42:08.526Z,11.10
2023-03-02T16:47:01.209Z,11.40
2023-03-02T16:51:58.864Z,10.90
2023-03-02T16:56:51.859Z,11.90
2023-03-02T17:01:44.764Z,10.80
2023-03-02T17:06:38.049Z,10.30
2023-03-02T17:11:32.350Z,11.70
2023-03-02T17:16:26.501Z,10.40
2023-03-02T17:21:19.250Z,10.80
2023-03-02T17:26:12.050Z,11.00
2023-03-02T17:31:04.854Z,10.70
2023-03-02T17:35:57.547Z,10.30
2023-03-02T17:40:50.220Z,10.30
2023-03-02T17:45:42.845Z,10.40
2023-03-02T17:51:11.881Z,10.50
2023-03-02T17:56:04.596Z,9.70
2023-03-02T18:00:57.274Z,11.90
2023-03-02T18:05:50.382Z,10.80
2023-03-02T18:10:43.777Z,10.50
2023-03-02T18:15:36.537Z,11.80
2023-03-02T18:20:29.309Z,12.60
2023-03-02T18:25:22.240Z,11.60
2023-03-02T18:30:15.483Z,15.10
2023-03-02T18:35:09.298Z,15.10
2023-03-02T18:40:02.584Z,13.80
2023-03-02T18:44:55.282Z,15.40
2023-03-02T18:49:47.968Z,15.50
2023-03-02T18:54:42.248Z,14.90
2023-03-02T18:59:36.862Z,14.50
2023-03-02T19:04:30.881Z,15.80
2023-03-02T19:09:24.746Z,18.90
2023-03-02T19:14:17.661Z,18.30
2023-03-02T19:19:10.964Z,20.10
2023-03-02T19:24:03.959Z,20.20
2023-03-02T19:28:56.616Z,20.20
2023-03-02T19:33:49.247Z,25.70
2023-03-02T19:38:44.516Z,24.60
2023-03-02T19:43:38.713Z,23.60
2023-03-02T19:48:32.197Z,30.20
2023-03-02T19:53:25.273Z,31.40
2023-03-02T19:58:19.872Z,36.80
2023-03-02T20:03:13.091Z,37.90
2023-03-02T20:08:07.773Z,43.40
2023-03-02T20:13:00.977Z,37.70
2023-03-02T20:17:53.961Z,39.70
2023-03-02T20:22:46.866Z,47.60
2023-03-02T20:27:39.915Z,43.60
2023-03-02T20:32:32.705Z,53.30
2023-03-02T20:37:26.138Z,53.60
2023-03-02T20:42:18.868Z,57.00
2023-03-02T20:47:15.065Z,52.80
2023-03-02T20:52:10.283Z,55.30
2023-03-02T20:57:05.584Z,52.50
2023-03-02T21:01:59.729Z,50.70
2023-03-02T21:06:53.506Z,56.00
2023-03-02T21:11:47.580Z,53.50
2023-03-02T21:16:43.319Z,61.50
2023-03-02T21:21:42.064Z,53.10
2023-03-02T21:26:36.513Z,52.60
2023-03-02T21:31:29.290Z,55.70
2023-03-02T21:36:25.056Z,58.00
2023-03-02T21:41:18.474Z,54.70
2023-03-02T21:46:15.994Z,54.80
2023-03-02T21:51:09.096Z,57.90
2023-03-02T21:56:01.875Z,54.00
2023-03-02T22:00:54.854Z,58.60
2023-03-02T22:05:49.963Z,56.70
2023-03-02T22:11:10.957Z,67.40
2023-03-02T22:16:44.318Z,62.00
2023-03-02T22:22:00.362Z,75.20
2023-03-02T22:32:55.557Z,75.30
2023-03-02T22:38:12.903Z,72.10
2023-03-02T22:43:32.045Z,67.60
2023-03-02T22:48:33.567Z,75.80
2023-03-02T22:54:00.024Z,73.10
2023-03-02T22:58:53.576Z,72.80
2023-03-02T23:03:48.783Z,71.20
2023-03-02T23:08:41.447Z,72.20
2023-03-02T23:13:42.093Z,70.40
2023-03-02T23:18:34.731Z,72.30
2023-03-02T23:23:29.257Z,71.50
2023-03-02T23:28:22.289Z,67.10
2023-03-02T23:33:15.986Z,67.80
2023-03-02T23:38:09.756Z,64.20
2023-03-02T23:43:24.549Z,58.90
2023-03-02T23:48:34.149Z,62.10
2023-03-02T23:53:51.710Z,65.70
